createdAt,value
2018-05-07T00:00:51.834Z,3.27
2018-05-07T00:03:17.874Z,2.83
2018-05-07T00:05:44.209Z,3.43
2018-05-07T00:08:10.228Z,2.73
2018-05-07T00:10:36.286Z,3.10
2018-05-07T00:13:02.390Z,3.20
2018-05-07T00:15:28.385Z,3.23
2018-05-07T00:17:54.474Z,2.97
2018-05-07T00:20:20.558Z,3.40
2018-05-07T00:22:46.596Z,3.57
2018-05-07T00:25:12.645Z,3.50
2018-05-07T00:27:38.694Z,3.77
2018-05-07T00:30:04.733Z,3.30
2018-05-07T00:32:30.754Z,3.27
2018-05-07T00:34:56.848Z,2.93
2018-05-07T00:37:22.874Z,3.57
2018-05-07T00:39:48.927Z,3.70
2018-05-07T00:42:14.953Z,3.43
2018-05-07T00:44:40.960Z,3.63
2018-05-07T00:47:06.998Z,3.80
2018-05-07T00:49:33.042Z,3.37
2018-05-07T00:51:59.071Z,3.57
2018-05-07T00:54:25.128Z,3.60
2018-05-07T00:56:51.194Z,3.47
2018-05-07T00:59:17.212Z,3.70
2018-05-07T01:01:43.272Z,3.90
2018-05-07T01:04:10.038Z,4.40
2018-05-07T01:06:36.252Z,4.20
2018-05-07T01:09:02.468Z,3.80
2018-05-07T01:11:28.511Z,4.00
2018-05-07T01:13:54.512Z,4.07
2018-05-07T01:16:20.800Z,3.60
2018-05-07T01:18:46.801Z,3.73
2018-05-07T01:21:13.109Z,3.57
2018-05-07T01:23:39.318Z,3.73
2018-05-07T01:26:05.374Z,3.73
2018-05-07T01:28:31.371Z,4.07
2018-05-07T01:30:57.387Z,3.53
2018-05-07T01:33:23.422Z,4.27
2018-05-07T01:35:49.444Z,3.63
2018-05-07T01:38:15.442Z,4.00
2018-05-07T01:40:41.464Z,3.87
2018-05-07T01:43:07.553Z,3.93
2018-05-07T01:45:34.066Z,4.40
2018-05-07T01:48:00.129Z,3.97
2018-05-07T01:50:26.144Z,4.27
2018-05-07T01:52:52.210Z,4.33
2018-05-07T01:55:18.341Z,4.30
2018-05-07T01:57:44.439Z,4.07
2018-05-07T02:00:10.469Z,4.40
2018-05-07T02:02:36.516Z,4.43
2018-05-07T02:05:02.634Z,4.33
2018-05-07T02:07:28.635Z,4.07
2018-05-07T02:09:54.644Z,4.30
2018-05-07T02:12:20.760Z,4.63
2018-05-07T02:14:46.868Z,4.90
2018-05-07T02:17:12.887Z,4.13
2018-05-07T02:19:38.880Z,4.90
2018-05-07T02:22:11.845Z,4.63
2018-05-07T02:24:37.856Z,3.93
2018-05-07T02:27:04.029Z,4.57
2018-05-07T02:29:30.103Z,4.10
2018-05-07T02:31:56.097Z,4.50
2018-05-07T02:34:22.112Z,4.30
2018-05-07T02:36:48.221Z,4.80
2018-05-07T02:39:14.282Z,4.53
2018-05-07T02:41:40.553Z,4.10
2018-05-07T02:44:06.643Z,4.33
2018-05-07T02:46:32.639Z,4.30
2018-05-07T02:48:58.740Z,4.90
2018-05-07T02:51:24.753Z,3.80
2018-05-07T02:53:50.796Z,4.33
2018-05-07T02:56:16.852Z,4.43
2018-05-07T02:58:42.883Z,4.33
2018-05-07T03:01:08.924Z,5.27
2018-05-07T03:03:34.917Z,4.60
2018-05-07T03:06:00.938Z,5.07
2018-05-07T03:08:26.969Z,4.67
2018-05-07T03:10:52.989Z,5.07
2018-05-07T03:13:19.039Z,4.73
2018-05-07T03:15:45.069Z,5.20
2018-05-07T03:18:11.071Z,5.30
2018-05-07T03:20:37.073Z,4.80
2018-05-07T03:23:03.135Z,5.20
2018-05-07T03:25:29.201Z,4.53
2018-05-07T03:27:55.200Z,5.40
2018-05-07T03:30:21.177Z,5.70
2018-05-07T03:32:47.191Z,5.57
2018-05-07T03:35:13.229Z,5.67
2018-05-07T03:37:39.364Z,5.50
2018-05-07T03:40:05.443Z,5.50
2018-05-07T03:42:31.424Z,5.23
2018-05-07T03:44:57.511Z,5.27
2018-05-07T03:47:23.523Z,5.43
2018-05-07T03:49:49.570Z,5.90
2018-05-07T03:52:15.604Z,5.57
2018-05-07T03:54:41.653Z,5.40
2018-05-07T03:57:07.668Z,6.00
2018-05-07T03:59:33.681Z,5.60
2018-05-07T04:01:59.869Z,5.70
2018-05-07T04:04:26.039Z,6.00
2018-05-07T04:06:52.125Z,5.93
2018-05-07T04:09:18.144Z,6.17
2018-05-07T04:11:44.180Z,5.50
2018-05-07T04:14:10.250Z,5.90
2018-05-07T04:16:48.458Z,5.83
2018-05-07T04:19:26.758Z,5.40
2018-05-07T04:22:05.027Z,5.50
2018-05-07T04:24:31.089Z,6.27
2018-05-07T04:26:57.177Z,5.63
2018-05-07T04:29:23.179Z,5.53
2018-05-07T04:31:49.255Z,5.73
2018-05-07T04:34:15.511Z,5.90
2018-05-07T04:36:41.534Z,5.43
2018-05-07T04:39:07.597Z,5.77
2018-05-07T04:41:33.635Z,6.50
2018-05-07T04:43:59.763Z,5.93
2018-05-07T04:46:25.889Z,6.13
2018-05-07T04:48:51.920Z,6.00
2018-05-07T04:51:17.984Z,6.10
2018-05-07T04:53:44.681Z,6.17
2018-05-07T04:56:10.708Z,6.63
2018-05-07T04:58:36.814Z,5.63
2018-05-07T05:01:02.876Z,6.37
2018-05-07T05:03:28.895Z,5.80
2018-05-07T05:05:54.895Z,5.13
2018-05-07T05:08:21.152Z,5.60
2018-05-07T05:10:47.177Z,6.40
2018-05-07T05:13:13.256Z,6.27
2018-05-07T05:15:39.235Z,6.00
2018-05-07T05:18:05.234Z,6.90
2018-05-07T05:20:31.275Z,6.10
2018-05-07T05:22:57.305Z,6.00
2018-05-07T05:25:23.324Z,5.90
2018-05-07T05:27:49.340Z,6.03
2018-05-07T05:30:15.371Z,6.23
2018-05-07T05:32:41.372Z,5.33
2018-05-07T05:35:07.384Z,5.47
2018-05-07T05:37:33.473Z,5.77
2018-05-07T05:39:59.527Z,6.27
2018-05-07T05:42:25.553Z,5.50
2018-05-07T05:44:51.579Z,6.87
2018-05-07T05:47:17.621Z,6.00
2018-05-07T05:49:43.743Z,5.90
2018-05-07T05:52:09.740Z,6.40
2018-05-07T05:54:35.745Z,6.33
2018-05-07T05:57:01.871Z,7.50
2018-05-07T05:59:27.989Z,6.50
2018-05-07T06:01:53.992Z,6.20
2018-05-07T06:04:20.018Z,6.87
2018-05-07T06:06:46.182Z,6.60
2018-05-07T06:09:12.201Z,6.43
2018-05-07T06:11:38.207Z,6.60
2018-05-07T06:14:04.258Z,7.13
2018-05-07T06:16:30.300Z,7.10
2018-05-07T06:18:56.389Z,5.80
2018-05-07T06:21:22.481Z,6.40
2018-05-07T06:23:48.435Z,6.20
2018-05-07T06:26:14.939Z,5.50
2018-05-07T06:28:41.044Z,5.53
2018-05-07T06:31:07.057Z,6.03
2018-05-07T06:33:33.262Z,5.80
2018-05-07T06:35:59.247Z,6.07
2018-05-07T06:38:25.247Z,5.50
2018-05-07T06:40:51.276Z,5.80
2018-05-07T06:43:17.289Z,5.67
2018-05-07T06:45:43.383Z,5.73
2018-05-07T06:48:09.336Z,5.50
2018-05-07T06:50:35.404Z,6.13
2018-05-07T06:53:01.498Z,5.43
2018-05-07T06:55:27.531Z,5.67
2018-05-07T06:57:53.568Z,6.10
2018-05-07T07:00:19.805Z,4.83
2018-05-07T07:02:46.930Z,5.13
2018-05-07T07:05:12.979Z,5.33
2018-05-07T07:07:38.992Z,5.07
2018-05-07T07:10:05.040Z,4.97
2018-05-07T07:12:31.126Z,5.17
2018-05-07T07:14:57.275Z,4.83
2018-05-07T07:17:23.327Z,4.93
2018-05-07T07:19:49.344Z,4.73
2018-05-07T07:22:15.676Z,4.40
2018-05-07T07:24:41.744Z,5.17
2018-05-07T07:27:07.940Z,4.83
2018-05-07T07:29:34.067Z,4.47
2018-05-07T07:32:00.088Z,4.60
2018-05-07T07:34:26.089Z,4.20
2018-05-07T07:36:52.159Z,4.90
2018-05-07T07:39:18.531Z,4.70
2018-05-07T07:41:44.578Z,4.47
2018-05-07T07:44:10.575Z,5.17
2018-05-07T07:46:36.681Z,4.63
2018-05-07T07:49:02.741Z,4.90
2018-05-07T07:51:28.759Z,5.03
2018-05-07T07:53:54.767Z,4.67
2018-05-07T07:56:20.856Z,4.43
2018-05-07T07:58:46.852Z,5.13
2018-05-07T08:01:12.837Z,4.60
2018-05-07T08:03:38.891Z,5.13
2018-05-07T08:06:04.886Z,4.93
2018-05-07T08:08:30.968Z,4.87
2018-05-07T08:10:56.998Z,4.97
2018-05-07T08:13:23.027Z,5.00
2018-05-07T08:15:49.190Z,4.80
2018-05-07T08:18:15.271Z,4.50
2018-05-07T08:20:41.349Z,4.93
2018-05-07T08:23:07.390Z,4.80
2018-05-07T08:25:33.407Z,5.90
2018-05-07T08:27:59.439Z,5.00
2018-05-07T08:30:25.518Z,4.90
2018-05-07T08:32:51.537Z,4.40
2018-05-07T08:35:17.576Z,4.43
2018-05-07T08:37:43.588Z,4.70
2018-05-07T08:40:09.572Z,4.67
2018-05-07T08:42:35.562Z,4.53
2018-05-07T08:45:01.579Z,4.80
2018-05-07T08:47:27.676Z,4.43
2018-05-07T08:49:53.700Z,4.50
2018-05-07T08:52:19.815Z,5.10
2018-05-07T08:54:46.445Z,5.13
2018-05-07T08:57:12.490Z,4.97
2018-05-07T08:59:38.567Z,4.67
2018-05-07T09:02:04.641Z,5.33
2018-05-07T09:04:30.630Z,5.33
2018-05-07T09:06:56.684Z,5.10
2018-05-07T09:09:22.870Z,5.30
2018-05-07T09:11:48.928Z,5.50
2018-05-07T09:14:14.927Z,4.93
2018-05-07T09:16:41.107Z,4.90
2018-05-07T09:19:07.182Z,5.20
2018-05-07T09:21:33.197Z,4.47
2018-05-07T09:23:59.224Z,5.23
2018-05-07T09:26:25.242Z,4.70
2018-05-07T09:28:52.495Z,4.57
2018-05-07T09:31:18.550Z,4.00
2018-05-07T09:33:44.901Z,5.20
2018-05-07T09:36:10.978Z,5.07
2018-05-07T09:38:37.077Z,4.37
2018-05-07T09:41:03.115Z,4.77
2018-05-07T09:43:29.177Z,4.37
2018-05-07T09:45:55.206Z,4.00
2018-05-07T09:48:21.318Z,3.87
2018-05-07T09:50:47.286Z,4.50
2018-05-07T09:53:13.360Z,4.40
2018-05-07T09:55:40.048Z,4.50
2018-05-07T09:58:06.083Z,4.90
2018-05-07T10:00:33.947Z,4.20
2018-05-07T10:02:59.959Z,4.23
2018-05-07T10:05:26.227Z,4.50
2018-05-07T10:07:52.285Z,4.57
2018-05-07T10:10:18.338Z,3.97
2018-05-07T10:12:44.517Z,4.77
2018-05-07T10:15:10.700Z,4.23
2018-05-07T10:17:36.741Z,4.20
2018-05-07T10:20:02.820Z,4.27
2018-05-07T10:22:28.865Z,4.53
2018-05-07T10:24:54.912Z,4.40
2018-05-07T10:27:20.929Z,3.87
2018-05-07T10:29:47.593Z,4.10
2018-05-07T10:32:13.753Z,3.90
2018-05-07T10:34:39.906Z,3.97
2018-05-07T10:37:06.073Z,3.70
2018-05-07T10:39:32.147Z,3.57
2018-05-07T10:41:58.198Z,3.20
2018-05-07T10:44:24.382Z,3.60
2018-05-07T10:46:50.430Z,3.27
2018-05-07T10:49:16.560Z,3.50
2018-05-07T10:51:42.527Z,3.73
2018-05-07T10:54:08.532Z,3.37
2018-05-07T10:56:34.625Z,2.93
2018-05-07T10:59:00.640Z,2.80
2018-05-07T11:01:26.659Z,3.17
2018-05-07T11:03:52.713Z,3.10
2018-05-07T11:06:18.746Z,3.00
2018-05-07T11:08:44.817Z,2.67
2018-05-07T11:11:10.877Z,2.97
2018-05-07T11:13:36.958Z,3.20
2018-05-07T11:16:02.923Z,3.07
2018-05-07T11:18:29.007Z,2.93
2018-05-07T11:20:55.085Z,3.30
2018-05-07T11:23:21.176Z,3.27
2018-05-07T11:25:47.205Z,3.03
2018-05-07T11:28:13.270Z,3.10
2018-05-07T11:30:39.342Z,3.13
2018-05-07T11:33:05.416Z,2.87
2018-05-07T11:35:31.476Z,3.20
2018-05-07T11:37:57.544Z,3.00
2018-05-07T11:40:23.548Z,3.03
2018-05-07T11:42:49.589Z,2.97
2018-05-07T11:45:15.645Z,3.30
2018-05-07T11:47:41.801Z,3.03
2018-05-07T11:50:07.837Z,2.77
2018-05-07T11:52:33.851Z,2.97
2018-05-07T11:55:00.119Z,3.07
2018-05-07T11:57:26.308Z,2.80
2018-05-07T11:59:52.369Z,2.87
2018-05-07T12:02:18.515Z,2.77
2018-05-07T12:04:44.521Z,2.75
2018-05-07T12:07:10.696Z,2.75
2018-05-07T12:09:36.816Z,2.87
2018-05-07T12:12:02.846Z,3.15
2018-05-07T12:14:29.796Z,2.85
2018-05-07T12:16:55.831Z,2.62
2018-05-07T12:19:21.921Z,2.95
2018-05-07T12:21:48.095Z,3.20
2018-05-07T12:24:14.188Z,3.83
2018-05-07T12:26:40.224Z,3.50
2018-05-07T12:29:06.262Z,2.85
2018-05-07T12:31:33.358Z,3.12
2018-05-07T12:33:59.324Z,2.80
2018-05-07T12:36:25.354Z,3.28
2018-05-07T12:38:51.420Z,3.50
2018-05-07T12:41:17.441Z,3.00
2018-05-07T12:43:43.607Z,2.92
2018-05-07T12:46:09.675Z,3.70
2018-05-07T12:48:35.717Z,3.25
2018-05-07T12:51:01.829Z,4.07
2018-05-07T12:53:27.863Z,3.60
2018-05-07T12:55:53.900Z,3.25
2018-05-07T12:58:19.951Z,3.53
2018-05-07T13:00:46.077Z,3.50
2018-05-07T13:03:12.120Z,3.42
2018-05-07T13:05:38.380Z,3.33
2018-05-07T13:08:04.445Z,3.20
2018-05-07T13:10:30.491Z,3.75
2018-05-07T13:12:56.889Z,3.15
2018-05-07T13:15:22.965Z,3.10
2018-05-07T13:17:49.039Z,3.37
2018-05-07T13:20:15.093Z,3.58
2018-05-07T13:22:41.170Z,2.97
2018-05-07T13:25:07.266Z,3.53
2018-05-07T13:27:33.364Z,3.85
2018-05-07T13:29:59.412Z,3.53
2018-05-07T13:32:25.433Z,3.60
2018-05-07T13:34:51.460Z,3.40
2018-05-07T13:37:17.513Z,3.53
2018-05-07T13:39:43.598Z,4.00
2018-05-07T13:42:09.620Z,3.07
2018-05-07T13:44:35.654Z,3.53
2018-05-07T13:47:01.761Z,3.17
2018-05-07T13:49:27.905Z,3.10
2018-05-07T13:51:54.032Z,3.30
2018-05-07T13:54:20.145Z,3.60
2018-05-07T13:56:46.198Z,3.40
2018-05-07T13:59:12.248Z,3.43
2018-05-07T14:01:38.412Z,3.00
2018-05-07T14:04:04.545Z,3.70
2018-05-07T14:06:30.629Z,3.57
2018-05-07T14:08:56.667Z,3.47
2018-05-07T14:11:23.328Z,4.07
2018-05-07T14:13:49.412Z,4.00
2018-05-07T14:16:15.438Z,4.33
2018-05-07T14:18:41.528Z,4.23
2018-05-07T14:21:07.690Z,4.47
2018-05-07T14:23:33.954Z,4.50
2018-05-07T14:25:59.987Z,3.60
2018-05-07T14:28:26.033Z,4.03
2018-05-07T14:30:52.504Z,4.00
2018-05-07T14:33:18.699Z,3.70
2018-05-07T14:35:44.766Z,4.33
2018-05-07T14:38:10.838Z,4.63
2018-05-07T14:40:36.892Z,4.87
2018-05-07T14:43:02.966Z,5.07
2018-05-07T14:45:29.425Z,5.33
2018-05-07T14:47:55.895Z,5.60
2018-05-07T14:50:22.031Z,5.10
2018-05-07T14:52:48.799Z,6.10
2018-05-07T14:55:14.802Z,5.83
2018-05-07T14:57:40.842Z,6.40
2018-05-07T15:00:06.897Z,5.43
2018-05-07T15:02:32.916Z,4.97
2018-05-07T15:04:58.903Z,6.87
2018-05-07T15:07:24.917Z,6.43
2018-05-07T15:09:51.027Z,6.63
2018-05-07T15:12:17.151Z,7.30
2018-05-07T15:14:43.211Z,7.70
2018-05-07T15:17:09.280Z,7.27
2018-05-07T15:19:35.984Z,7.50
2018-05-07T15:22:02.138Z,7.30
2018-05-07T15:27:22.438Z,9.57
2018-05-07T15:29:48.682Z,9.23
2018-05-07T15:32:14.778Z,8.97
2018-05-07T15:34:40.798Z,9.73
2018-05-07T15:37:06.932Z,8.90
2018-05-07T15:39:33.078Z,10.27
2018-05-07T15:41:59.174Z,10.47
2018-05-07T15:44:25.352Z,10.80
2018-05-07T15:46:51.433Z,11.60
2018-05-07T15:49:17.556Z,11.30
2018-05-07T15:51:43.631Z,10.50
2018-05-07T15:54:09.679Z,10.17
2018-05-07T15:56:35.778Z,11.73
2018-05-07T15:59:02.352Z,10.70
2018-05-07T16:01:28.500Z,12.00
2018-05-07T16:03:54.616Z,11.57
2018-05-07T16:06:20.716Z,10.33
2018-05-07T16:08:46.791Z,10.10
2018-05-07T16:11:12.804Z,10.83
2018-05-07T16:13:40.107Z,10.53
2018-05-07T16:16:06.248Z,11.93
2018-05-07T16:18:32.424Z,11.17
2018-05-07T16:20:58.475Z,12.07
2018-05-07T16:23:24.540Z,11.07
2018-05-07T16:25:51.008Z,10.90
2018-05-07T16:28:17.139Z,9.80
2018-05-07T16:30:43.162Z,10.23
2018-05-07T16:33:09.333Z,10.83
2018-05-07T16:35:35.364Z,11.63
2018-05-07T16:38:01.395Z,9.70
2018-05-07T16:40:27.563Z,10.67
2018-05-07T16:42:53.639Z,11.63
2018-05-07T16:45:19.852Z,12.20
2018-05-07T16:47:46.099Z,11.43
2018-05-07T16:50:12.369Z,10.73
2018-05-07T16:52:38.629Z,11.63
2018-05-07T16:55:04.712Z,10.30
2018-05-07T16:57:30.896Z,11.70
2018-05-07T16:59:56.852Z,10.13
2018-05-07T17:02:22.993Z,11.47
2018-05-07T17:04:49.199Z,11.70
2018-05-07T17:07:15.277Z,11.57
2018-05-07T17:09:41.303Z,12.03
2018-05-07T17:12:08.144Z,13.03
2018-05-07T17:14:34.470Z,10.53
2018-05-07T17:17:00.830Z,12.50
2018-05-07T17:19:26.943Z,11.27
2018-05-07T17:21:52.968Z,12.90
2018-05-07T17:24:19.036Z,12.23
2018-05-07T17:26:45.068Z,12.07
2018-05-07T17:29:11.143Z,12.20
2018-05-07T17:31:37.215Z,11.03
2018-05-07T17:34:03.412Z,12.60
2018-05-07T17:36:29.835Z,10.60
2018-05-07T17:38:55.926Z,11.80
2018-05-07T17:41:22.078Z,11.53
2018-05-07T17:43:48.047Z,12.00
2018-05-07T17:46:26.305Z,11.13
2018-05-07T17:48:55.065Z,10.93
2018-05-07T17:51:21.063Z,10.03
2018-05-07T17:53:47.115Z,9.10
2018-05-07T17:56:13.184Z,11.20
2018-05-07T17:58:39.287Z,11.30
2018-05-07T18:01:05.362Z,11.70
2018-05-07T18:03:31.453Z,10.50
2018-05-07T18:05:57.459Z,9.73
2018-05-07T18:08:23.488Z,10.13
2018-05-07T18:10:49.592Z,10.40
2018-05-07T18:13:15.587Z,10.17
2018-05-07T18:15:41.649Z,10.03
2018-05-07T18:18:07.713Z,9.87
2018-05-07T18:20:34.301Z,10.40
2018-05-07T18:23:00.436Z,10.50
2018-05-07T18:25:26.987Z,10.13
2018-05-07T18:27:53.046Z,10.37
2018-05-07T18:30:19.129Z,9.00
2018-05-07T18:32:45.206Z,10.53
2018-05-07T18:35:11.276Z,11.17
2018-05-07T18:37:37.346Z,10.07
2018-05-07T18:40:03.405Z,10.40
2018-05-07T18:42:29.469Z,9.80
2018-05-07T18:44:55.552Z,9.77
2018-05-07T18:47:21.893Z,11.03
2018-05-07T18:49:48.669Z,10.60
2018-05-07T18:52:14.815Z,10.03
2018-05-07T18:54:40.941Z,10.47
2018-05-07T18:57:07.010Z,10.17
2018-05-07T18:59:33.059Z,10.40
2018-05-07T19:01:59.176Z,10.13
2018-05-07T19:04:25.374Z,9.63
2018-05-07T19:06:51.583Z,10.03
2018-05-07T19:09:17.671Z,9.17
2018-05-07T19:11:43.749Z,9.27
2018-05-07T19:14:09.871Z,9.27
2018-05-07T19:16:35.923Z,8.20
2018-05-07T19:19:02.043Z,9.53
2018-05-07T19:21:28.234Z,9.33
2018-05-07T19:23:54.312Z,8.83
2018-05-07T19:26:20.391Z,9.07
2018-05-07T19:28:46.660Z,8.30
2018-05-07T19:31:12.928Z,8.90
2018-05-07T19:33:39.824Z,8.53
2018-05-07T19:36:06.025Z,8.37
2018-05-07T19:38:32.257Z,8.40
2018-05-07T19:40:58.273Z,8.47
2018-05-07T19:43:24.293Z,8.10
2018-05-07T19:45:50.448Z,7.30
2018-05-07T19:48:16.629Z,7.77
2018-05-07T19:50:42.801Z,8.00
2018-05-07T19:53:08.815Z,7.80
2018-05-07T19:55:34.882Z,8.43
2018-05-07T19:58:01.298Z,7.40
2018-05-07T20:00:27.515Z,7.57
2018-05-07T20:02:53.597Z,7.90
2018-05-07T20:05:19.635Z,7.33
2018-05-07T20:07:46.414Z,10.00
2018-05-07T20:10:12.616Z,8.87
2018-05-07T20:12:39.634Z,8.93
2018-05-07T20:15:05.646Z,8.10
2018-05-07T20:17:31.755Z,8.03
2018-05-07T20:19:58.845Z,8.70
2018-05-07T20:22:25.014Z,8.27
2018-05-07T20:24:51.093Z,8.27
2018-05-07T20:27:17.316Z,7.47
2018-05-07T20:29:43.342Z,7.07
2018-05-07T20:32:09.829Z,7.70
2018-05-07T20:34:36.280Z,7.67
2018-05-07T20:37:02.391Z,7.33
2018-05-07T20:39:29.100Z,8.60
2018-05-07T20:41:55.466Z,8.17
2018-05-07T20:44:21.545Z,9.53
2018-05-07T20:46:47.591Z,9.00
2018-05-07T20:49:13.673Z,8.87
2018-05-07T20:51:40.205Z,8.83
2018-05-07T20:54:06.403Z,9.80
2018-05-07T20:56:32.457Z,9.33
2018-05-07T20:58:58.541Z,9.00
2018-05-07T21:01:24.923Z,9.77
2018-05-07T21:03:51.522Z,11.13
2018-05-07T21:06:17.526Z,10.80
2018-05-07T21:08:43.584Z,10.80
2018-05-07T21:11:09.684Z,11.57
2018-05-07T21:13:35.869Z,11.43
2018-05-07T21:16:01.929Z,10.87
2018-05-07T21:18:27.969Z,10.63
2018-05-07T21:20:54.023Z,10.07
2018-05-07T21:23:20.208Z,11.17
2018-05-07T21:25:46.399Z,10.00
2018-05-07T21:28:12.569Z,10.87
2018-05-07T21:30:38.594Z,10.50
2018-05-07T21:33:04.725Z,11.97
2018-05-07T21:35:31.272Z,11.17
2018-05-07T21:37:57.316Z,11.33
2018-05-07T21:40:23.331Z,11.37
2018-05-07T21:42:49.386Z,11.47
2018-05-07T21:45:15.406Z,12.07
2018-05-07T21:47:41.417Z,11.40
2018-05-07T21:50:07.632Z,11.20
2018-05-07T21:52:33.625Z,12.00
2018-05-07T21:54:59.629Z,11.50
2018-05-07T21:57:25.659Z,12.43
2018-05-07T21:59:51.653Z,11.17
2018-05-07T22:02:17.774Z,11.47
2018-05-07T22:04:44.170Z,11.77
2018-05-07T22:07:10.234Z,11.47
2018-05-07T22:09:36.274Z,11.47
2018-05-07T22:12:02.428Z,11.03
2018-05-07T22:14:28.568Z,11.83
2018-05-07T22:16:54.607Z,10.80
2018-05-07T22:19:20.679Z,10.87
2018-05-07T22:21:46.709Z,10.67
2018-05-07T22:24:12.858Z,11.53
2018-05-07T22:26:38.873Z,10.87
2018-05-07T22:29:04.900Z,11.17
2018-05-07T22:31:30.963Z,10.00
2018-05-07T22:33:57.027Z,10.70
2018-05-07T22:36:23.064Z,9.93
2018-05-07T22:38:49.111Z,9.77
2018-05-07T22:41:15.133Z,10.73
2018-05-07T22:43:41.156Z,9.70
2018-05-07T22:46:07.215Z,9.90
2018-05-07T22:48:33.200Z,9.63
2018-05-07T22:50:59.247Z,10.17
2018-05-07T22:53:25.297Z,9.90
2018-05-07T22:55:51.974Z,9.70
2018-05-07T22:58:18.122Z,9.23
2018-05-07T23:00:44.189Z,8.47
2018-05-07T23:03:10.295Z,9.20
2018-05-07T23:05:36.335Z,9.33
2018-05-07T23:08:02.371Z,9.37
2018-05-07T23:10:28.540Z,8.57
2018-05-07T23:12:54.684Z,8.73
2018-05-07T23:15:20.695Z,8.90
2018-05-07T23:17:46.687Z,8.37
2018-05-07T23:20:12.787Z,8.03
2018-05-07T23:22:38.791Z,8.50
2018-05-07T23:25:04.795Z,8.57
2018-05-07T23:27:30.786Z,8.20
2018-05-07T23:29:57.020Z,8.77
2018-05-07T23:32:23.047Z,8.07
2018-05-07T23:34:49.075Z,7.73
2018-05-07T23:37:15.110Z,7.87
2018-05-07T23:39:41.109Z,8.07
2018-05-07T23:42:07.173Z,7.23
2018-05-07T23:44:33.172Z,7.97
2018-05-07T23:46:59.193Z,7.83
2018-05-07T23:49:25.215Z,7.90
2018-05-07T23:51:51.232Z,7.70
2018-05-07T23:54:17.244Z,6.77
2018-05-07T23:56:43.285Z,7.50
2018-05-07T23:59:09.292Z,7.60
